sensor_id;sensor_type;location;lat;lon;timestamp;P1;durP1;ratioP1;P2;durP2;ratioP2
22937;SDS011;11634;42.734;23.298;2023-03-14T00:00:31;37.57;;;21.67;;
22937;SDS011;11634;42.734;23.298;2023-03-14T00:02:56;38.27;;;20.97;;
22937;SDS011;11634;42.734;23.298;2023-03-14T00:05:22;36.07;;;21.07;;
22937;SDS011;11634;42.734;23.298;2023-03-14T00:07:47;25.67;;;14.67;;
22937;SDS011;11634;42.734;23.298;2023-03-14T00:10:13;17.00;;;11.73;;
22937;SDS011;11634;42.734;23.298;2023-03-14T00:12:39;26.17;;;16.93;;
22937;SDS011;11634;42.734;23.298;2023-03-14T00:15:05;34.50;;;20.23;;
22937;SDS011;11634;42.734;23.298;2023-03-14T00:17:32;23.73;;;15.13;;
22937;SDS011;11634;42.734;23.298;2023-03-14T00:19:58;21.60;;;13.43;;
22937;SDS011;11634;42.734;23.298;2023-03-14T00:22:29;22.87;;;12.73;;
22937;SDS011;11634;42.734;23.298;2023-03-14T00:24:55;21.77;;;12.17;;
22937;SDS011;11634;42.734;23.298;2023-03-14T00:27:20;16.53;;;10.67;;
22937;SDS011;11634;42.734;23.298;2023-03-14T00:29:46;15.87;;;10.57;;
22937;SDS011;11634;42.734;23.298;2023-03-14T00:32:11;13.07;;;8.87;;
22937;SDS011;11634;42.734;23.298;2023-03-14T00:34:38;12.27;;;7.73;;
22937;SDS011;11634;42.734;23.298;2023-03-14T00:37:05;11.97;;;8.30;;
22937;SDS011;11634;42.734;23.298;2023-03-14T00:39:30;11.93;;;7.83;;
22937;SDS011;11634;42.734;23.298;2023-03-14T00:41:56;10.87;;;7.33;;
22937;SDS011;11634;42.734;23.298;2023-03-14T00:44:21;10.07;;;6.97;;
22937;SDS011;11634;42.734;23.298;2023-03-14T00:46:47;10.10;;;6.37;;
22937;SDS011;11634;42.734;23.298;2023-03-14T00:49:12;10.30;;;6.83;;
22937;SDS011;11634;42.734;23.298;2023-03-14T00:51:38;9.43;;;6.00;;
22937;SDS011;11634;42.734;23.298;2023-03-14T00:54:03;9.10;;;6.43;;
22937;SDS011;11634;42.734;23.298;2023-03-14T00:56:28;8.40;;;5.73;;
22937;SDS011;11634;42.734;23.298;2023-03-14T00:58:57;9.30;;;6.27;;
22937;SDS011;11634;42.734;23.298;2023-03-14T01:01:22;13.37;;;6.93;;
22937;SDS011;11634;42.734;23.298;2023-03-14T01:03:53;12.13;;;6.87;;
22937;SDS011;11634;42.734;23.298;2023-03-14T01:06:26;14.23;;;8.13;;
22937;SDS011;11634;42.734;23.298;2023-03-14T01:08:53;9.93;;;6.90;;
22937;SDS011;11634;42.734;23.298;2023-03-14T01:11:20;14.53;;;8.13;;
22937;SDS011;11634;42.734;23.298;2023-03-14T01:13:45;10.70;;;7.20;;
22937;SDS011;11634;42.734;23.298;2023-03-14T01:16:11;10.83;;;7.00;;
22937;SDS011;11634;42.734;23.298;2023-03-14T01:18:37;14.07;;;9.13;;
22937;SDS011;11634;42.734;23.298;2023-03-14T01:21:08;20.97;;;11.90;;
22937;SDS011;11634;42.734;23.298;2023-03-14T01:23:34;14.80;;;9.00;;
22937;SDS011;11634;42.734;23.298;2023-03-14T01:26:00;11.70;;;7.47;;
22937;SDS011;11634;42.734;23.298;2023-03-14T01:28:25;20.20;;;10.27;;
22937;SDS011;11634;42.734;23.298;2023-03-14T01:30:50;15.03;;;10.60;;
22937;SDS011;11634;42.734;23.298;2023-03-14T01:33:16;23.70;;;12.43;;
22937;SDS011;11634;42.734;23.298;2023-03-14T01:35:43;17.83;;;12.27;;
22937;SDS011;11634;42.734;23.298;2023-03-14T01:38:09;17.97;;;13.37;;
22937;SDS011;11634;42.734;23.298;2023-03-14T01:40:40;23.60;;;14.30;;
22937;SDS011;11634;42.734;23.298;2023-03-14T01:43:12;29.17;;;15.50;;
22937;SDS011;11634;42.734;23.298;2023-03-14T01:48:22;19.90;;;13.70;;
22937;SDS011;11634;42.734;23.298;2023-03-14T01:50:48;28.80;;;16.20;;
22937;SDS011;11634;42.734;23.298;2023-03-14T01:53:14;21.57;;;14.97;;
22937;SDS011;11634;42.734;23.298;2023-03-14T01:55:40;25.07;;;15.60;;
22937;SDS011;11634;42.734;23.298;2023-03-14T01:58:05;24.40;;;15.87;;
22937;SDS011;11634;42.734;23.298;2023-03-14T02:00:31;22.70;;;14.90;;
22937;SDS011;11634;42.734;23.298;2023-03-14T02:03:01;23.97;;;15.50;;
22937;SDS011;11634;42.734;23.298;2023-03-14T02:05:34;24.67;;;15.77;;
22937;SDS011;11634;42.734;23.298;2023-03-14T02:08:05;22.63;;;15.90;;
22937;SDS011;11634;42.734;23.298;2023-03-14T02:10:45;26.00;;;16.43;;
22937;SDS011;11634;42.734;23.298;2023-03-14T02:13:13;25.40;;;17.23;;
22937;SDS011;11634;42.734;23.298;2023-03-14T02:15:53;24.70;;;16.00;;
22937;SDS011;11634;42.734;23.298;2023-03-14T02:18:34;35.37;;;18.20;;
22937;SDS011;11634;42.734;23.298;2023-03-14T02:22:26;24.53;;;16.57;;
22937;SDS011;11634;42.734;23.298;2023-03-14T02:27:09;28.83;;;17.43;;
22937;SDS011;11634;42.734;23.298;2023-03-14T02:29:41;27.20;;;16.43;;
22937;SDS011;11634;42.734;23.298;2023-03-14T02:32:08;23.77;;;16.40;;
22937;SDS011;11634;42.734;23.298;2023-03-14T02:34:33;24.20;;;15.37;;
22937;SDS011;11634;42.734;23.298;2023-03-14T02:36:59;30.13;;;15.03;;
22937;SDS011;11634;42.734;23.298;2023-03-14T02:39:32;22.97;;;15.97;;
22937;SDS011;11634;42.734;23.298;2023-03-14T02:42:00;22.43;;;15.40;;
22937;SDS011;11634;42.734;23.298;2023-03-14T02:44:25;28.90;;;17.53;;
22937;SDS011;11634;42.734;23.298;2023-03-14T02:46:51;25.53;;;16.17;;
22937;SDS011;11634;42.734;23.298;2023-03-14T02:49:16;24.03;;;16.33;;
22937;SDS011;11634;42.734;23.298;2023-03-14T02:51:43;25.77;;;16.27;;
22937;SDS011;11634;42.734;23.298;2023-03-14T02:54:09;26.37;;;16.77;;
22937;SDS011;11634;42.734;23.298;2023-03-14T02:56:35;30.60;;;16.63;;
22937;SDS011;11634;42.734;23.298;2023-03-14T02:59:04;28.47;;;17.43;;
22937;SDS011;11634;42.734;23.298;2023-03-14T03:01:56;21.43;;;15.67;;
22937;SDS011;11634;42.734;23.298;2023-03-14T03:04:24;23.50;;;15.23;;
22937;SDS011;11634;42.734;23.298;2023-03-14T03:06:49;24.23;;;15.80;;
22937;SDS011;11634;42.734;23.298;2023-03-14T03:09:15;26.40;;;16.03;;
22937;SDS011;11634;42.734;23.298;2023-03-14T03:11:41;24.50;;;15.80;;
22937;SDS011;11634;42.734;23.298;2023-03-14T03:14:08;21.93;;;15.33;;
22937;SDS011;11634;42.734;23.298;2023-03-14T03:16:34;21.07;;;13.87;;
22937;SDS011;11634;42.734;23.298;2023-03-14T03:18:59;22.33;;;14.67;;
22937;SDS011;11634;42.734;23.298;2023-03-14T03:21:25;25.43;;;15.63;;
22937;SDS011;11634;42.734;23.298;2023-03-14T03:23:50;21.13;;;15.03;;
22937;SDS011;11634;42.734;23.298;2023-03-14T03:26:16;19.63;;;14.67;;
22937;SDS011;11634;42.734;23.298;2023-03-14T03:28:41;23.43;;;15.67;;
22937;SDS011;11634;42.734;23.298;2023-03-14T03:31:08;22.63;;;15.23;;
22937;SDS011;11634;42.734;23.298;2023-03-14T03:33:35;21.50;;;14.47;;
22937;SDS011;11634;42.734;23.298;2023-03-14T03:36:01;21.67;;;13.87;;
22937;SDS011;11634;42.734;23.298;2023-03-14T03:38:30;23.43;;;15.07;;
22937;SDS011;11634;42.734;23.298;2023-03-14T03:40:58;21.53;;;14.57;;
22937;SDS011;11634;42.734;23.298;2023-03-14T03:43:26;19.43;;;13.73;;
22937;SDS011;11634;42.734;23.298;2023-03-14T03:45:52;21.20;;;14.13;;
22937;SDS011;11634;42.734;23.298;2023-03-14T03:48:19;22.33;;;14.80;;
22937;SDS011;11634;42.734;23.298;2023-03-14T03:50:45;21.80;;;13.20;;
22937;SDS011;11634;42.734;23.298;2023-03-14T03:53:11;21.70;;;13.80;;
22937;SDS011;11634;42.734;23.298;2023-03-14T03:55:40;21.43;;;13.83;;
22937;SDS011;11634;42.734;23.298;2023-03-14T03:58:06;23.33;;;14.03;;
22937;SDS011;11634;42.734;23.298;2023-03-14T04:00:32;19.23;;;13.00;;
22937;SDS011;11634;42.734;23.298;2023-03-14T04:02:58;19.60;;;12.80;;
22937;SDS011;11634;42.734;23.298;2023-03-14T04:05:24;23.20;;;13.13;;
22937;SDS011;11634;42.734;23.298;2023-03-14T04:07:59;19.87;;;13.47;;
22937;SDS011;11634;42.734;23.298;2023-03-14T04:10:27;21.67;;;13.77;;
22937;SDS011;11634;42.734;23.298;2023-03-14T04:13:15;23.37;;;12.87;;
22937;SDS011;11634;42.734;23.298;2023-03-14T04:15:45;22.63;;;14.77;;
22937;SDS011;11634;42.734;23.298;2023-03-14T04:18:17;17.43;;;13.03;;
22937;SDS011;11634;42.734;23.298;2023-03-14T04:20:42;21.73;;;12.87;;
22937;SDS011;11634;42.734;23.298;2023-03-14T04:23:09;22.67;;;13.57;;
22937;SDS011;11634;42.734;23.298;2023-03-14T04:25:35;19.40;;;13.27;;
22937;SDS011;11634;42.734;23.298;2023-03-14T04:28:04;23.00;;;13.80;;
22937;SDS011;11634;42.734;23.298;2023-03-14T04:30:31;24.03;;;12.50;;
22937;SDS011;11634;42.734;23.298;2023-03-14T04:33:00;19.87;;;13.03;;
22937;SDS011;11634;42.734;23.298;2023-03-14T04:35:30;19.67;;;13.70;;
22937;SDS011;11634;42.734;23.298;2023-03-14T04:38:02;19.77;;;12.67;;
22937;SDS011;11634;42.734;23.298;2023-03-14T04:40:31;22.77;;;12.80;;
22937;SDS011;11634;42.734;23.298;2023-03-14T04:43:02;19.70;;;13.10;;
22937;SDS011;11634;42.734;23.298;2023-03-14T04:45:30;19.67;;;12.63;;
22937;SDS011;11634;42.734;23.298;2023-03-14T04:47:59;16.67;;;12.60;;
22937;SDS011;11634;42.734;23.298;2023-03-14T04:50:26;19.40;;;13.77;;
22937;SDS011;11634;42.734;23.298;2023-03-14T04:52:53;30.83;;;16.53;;
22937;SDS011;11634;42.734;23.298;2023-03-14T04:55:18;20.53;;;14.63;;
22937;SDS011;11634;42.734;23.298;2023-03-14T04:57:44;19.37;;;13.57;;
22937;SDS011;11634;42.734;23.298;2023-03-14T05:00:11;21.90;;;14.87;;
22937;SDS011;11634;42.734;23.298;2023-03-14T05:02:51;24.77;;;13.60;;
22937;SDS011;11634;42.734;23.298;2023-03-14T05:05:54;22.27;;;14.27;;
22937;SDS011;11634;42.734;23.298;2023-03-14T05:08:49;21.67;;;14.67;;
22937;SDS011;11634;42.734;23.298;2023-03-14T05:11:34;24.93;;;15.63;;
22937;SDS011;11634;42.734;23.298;2023-03-14T05:14:02;29.93;;;18.07;;
22937;SDS011;11634;42.734;23.298;2023-03-14T05:16:49;28.33;;;17.20;;
22937;SDS011;11634;42.734;23.298;2023-03-14T05:19:48;33.37;;;17.33;;
22937;SDS011;11634;42.734;23.298;2023-03-14T05:22:32;37.27;;;17.53;;
22937;SDS011;11634;42.734;23.298;2023-03-14T05:25:17;32.13;;;17.67;;
22937;SDS011;11634;42.734;23.298;2023-03-14T05:28:03;22.03;;;13.47;;
22937;SDS011;11634;42.734;23.298;2023-03-14T05:30:54;47.43;;;32.07;;
22937;SDS011;11634;42.734;23.298;2023-03-14T05:33:59;22.07;;;14.20;;
22937;SDS011;11634;42.734;23.298;2023-03-14T05:36:48;21.93;;;13.97;;
22937;SDS011;11634;42.734;23.298;2023-03-14T05:39:32;20.43;;;12.97;;
22937;SDS011;11634;42.734;23.298;2023-03-14T05:42:25;23.60;;;14.27;;
22937;SDS011;11634;42.734;23.298;2023-03-14T05:45:05;20.43;;;12.83;;
22937;SDS011;11634;42.734;23.298;2023-03-14T05:47:50;23.30;;;12.23;;
22937;SDS011;11634;42.734;23.298;2023-03-14T05:50:34;20.47;;;11.60;;
22937;SDS011;11634;42.734;23.298;2023-03-14T05:53:25;15.87;;;11.93;;
22937;SDS011;11634;42.734;23.298;2023-03-14T05:56:12;20.13;;;11.20;;
22937;SDS011;11634;42.734;23.298;2023-03-14T05:58:55;21.27;;;11.73;;
22937;SDS011;11634;42.734;23.298;2023-03-14T06:01:41;19.77;;;13.20;;
22937;SDS011;11634;42.734;23.298;2023-03-14T06:04:16;23.73;;;11.83;;
22937;SDS011;11634;42.734;23.298;2023-03-14T06:06:49;18.43;;;12.83;;
22937;SDS011;11634;42.734;23.298;2023-03-14T06:09:17;19.37;;;13.20;;
22937;SDS011;11634;42.734;23.298;2023-03-14T06:11:45;26.63;;;12.83;;
22937;SDS011;11634;42.734;23.298;2023-03-14T06:14:12;26.27;;;12.20;;
22937;SDS011;11634;42.734;23.298;2023-03-14T06:16:42;23.63;;;13.57;;
22937;SDS011;11634;42.734;23.298;2023-03-14T06:19:09;22.90;;;12.40;;
22937;SDS011;11634;42.734;23.298;2023-03-14T06:21:36;22.10;;;11.70;;
22937;SDS011;11634;42.734;23.298;2023-03-14T06:24:02;21.30;;;12.10;;
22937;SDS011;11634;42.734;23.298;2023-03-14T06:26:32;16.83;;;11.20;;
22937;SDS011;11634;42.734;23.298;2023-03-14T06:28:59;17.83;;;12.43;;
22937;SDS011;11634;42.734;23.298;2023-03-14T06:31:30;16.07;;;11.50;;
22937;SDS011;11634;42.734;23.298;2023-03-14T06:34:01;21.67;;;11.33;;
22937;SDS011;11634;42.734;23.298;2023-03-14T06:36:30;20.07;;;12.10;;
22937;SDS011;11634;42.734;23.298;2023-03-14T06:38:57;20.13;;;11.50;;
22937;SDS011;11634;42.734;23.298;2023-03-14T06:41:27;25.33;;;13.10;;
22937;SDS011;11634;42.734;23.298;2023-03-14T06:43:54;26.90;;;13.30;;
22937;SDS011;11634;42.734;23.298;2023-03-14T06:46:20;17.33;;;12.20;;
22937;SDS011;11634;42.734;23.298;2023-03-14T06:48:48;18.40;;;12.03;;
22937;SDS011;11634;42.734;23.298;2023-03-14T06:51:15;21.13;;;12.87;;
22937;SDS011;11634;42.734;23.298;2023-03-14T06:53:43;21.90;;;12.63;;
22937;SDS011;11634;42.734;23.298;2023-03-14T06:56:10;20.10;;;12.23;;
22937;SDS011;11634;42.734;23.298;2023-03-14T06:58:37;21.90;;;12.80;;
22937;SDS011;11634;42.734;23.298;2023-03-14T07:01:05;22.05;;;12.45;;
22937;SDS011;11634;42.734;23.298;2023-03-14T07:03:39;18.55;;;12.80;;
22937;SDS011;11634;42.734;23.298;2023-03-14T07:06:06;14.97;;;11.80;;
22937;SDS011;11634;42.734;23.298;2023-03-14T07:08:32;14.55;;;11.32;;
22937;SDS011;11634;42.734;23.298;2023-03-14T07:11:01;16.53;;;12.43;;
22937;SDS011;11634;42.734;23.298;2023-03-14T07:13:29;19.70;;;12.33;;
22937;SDS011;11634;42.734;23.298;2023-03-14T07:16:07;19.67;;;12.93;;
22937;SDS011;11634;42.734;23.298;2023-03-14T07:18:33;23.38;;;13.05;;
22937;SDS011;11634;42.734;23.298;2023-03-14T07:21:05;20.60;;;14.23;;
22937;SDS011;11634;42.734;23.298;2023-03-14T07:23:31;30.70;;;13.60;;
22937;SDS011;11634;42.734;23.298;2023-03-14T07:25:59;20.75;;;13.95;;
22937;SDS011;11634;42.734;23.298;2023-03-14T07:28:27;20.02;;;13.80;;
22937;SDS011;11634;42.734;23.298;2023-03-14T07:31:18;21.92;;;14.25;;
22937;SDS011;11634;42.734;23.298;2023-03-14T07:33:43;27.58;;;14.02;;
22937;SDS011;11634;42.734;23.298;2023-03-14T07:36:12;18.10;;;14.18;;
22937;SDS011;11634;42.734;23.298;2023-03-14T07:38:43;22.10;;;14.57;;
22937;SDS011;11634;42.734;23.298;2023-03-14T07:41:44;21.92;;;14.20;;
22937;SDS011;11634;42.734;23.298;2023-03-14T07:44:43;20.48;;;14.45;;
22937;SDS011;11634;42.734;23.298;2023-03-14T07:47:10;25.65;;;14.98;;
22937;SDS011;11634;42.734;23.298;2023-03-14T07:49:38;30.55;;;15.55;;
22937;SDS011;11634;42.734;23.298;2023-03-14T07:52:05;29.15;;;16.40;;
22937;SDS011;11634;42.734;23.298;2023-03-14T07:54:32;23.65;;;16.73;;
22937;SDS011;11634;42.734;23.298;2023-03-14T07:56:57;22.73;;;16.65;;
22937;SDS011;11634;42.734;23.298;2023-03-14T07:59:26;28.05;;;17.15;;
22937;SDS011;11634;42.734;23.298;2023-03-14T08:01:51;24.85;;;15.90;;
22937;SDS011;11634;42.734;23.298;2023-03-14T08:04:18;29.02;;;16.38;;
22937;SDS011;11634;42.734;23.298;2023-03-14T08:06:47;24.17;;;15.05;;
22937;SDS011;11634;42.734;23.298;2023-03-14T08:09:13;18.38;;;11.32;;
22937;SDS011;11634;42.734;23.298;2023-03-14T08:11:38;20.95;;;12.38;;
22937;SDS011;11634;42.734;23.298;2023-03-14T08:14:05;14.80;;;11.07;;
22937;SDS011;11634;42.734;23.298;2023-03-14T08:16:32;12.40;;;10.32;;
22937;SDS011;11634;42.734;23.298;2023-03-14T08:18:59;18.85;;;11.07;;
22937;SDS011;11634;42.734;23.298;2023-03-14T08:21:25;16.85;;;12.10;;
22937;SDS011;11634;42.734;23.298;2023-03-14T08:23:52;20.92;;;11.80;;
22937;SDS011;11634;42.734;23.298;2023-03-14T08:26:18;20.77;;;12.70;;
22937;SDS011;11634;42.734;23.298;2023-03-14T08:28:47;17.45;;;11.65;;
22937;SDS011;11634;42.734;23.298;2023-03-14T08:31:12;20.63;;;12.23;;
22937;SDS011;11634;42.734;23.298;2023-03-14T08:33:39;23.75;;;12.77;;
22937;SDS011;11634;42.734;23.298;2023-03-14T08:36:04;13.93;;;9.63;;
22937;SDS011;11634;42.734;23.298;2023-03-14T08:38:31;12.10;;;7.00;;
22937;SDS011;11634;42.734;23.298;2023-03-14T08:40:59;10.07;;;6.13;;
22937;SDS011;11634;42.734;23.298;2023-03-14T08:43:26;6.57;;;4.90;;
22937;SDS011;11634;42.734;23.298;2023-03-14T08:45:57;8.10;;;5.95;;
22937;SDS011;11634;42.734;23.298;2023-03-14T08:48:22;9.10;;;6.50;;
22937;SDS011;11634;42.734;23.298;2023-03-14T08:50:48;12.93;;;6.43;;
22937;SDS011;11634;42.734;23.298;2023-03-14T08:53:14;11.55;;;6.47;;
22937;SDS011;11634;42.734;23.298;2023-03-14T08:55:40;8.93;;;6.13;;
22937;SDS011;11634;42.734;23.298;2023-03-14T08:58:05;8.57;;;6.07;;
22937;SDS011;11634;42.734;23.298;2023-03-14T09:00:32;12.15;;;6.88;;
22937;SDS011;11634;42.734;23.298;2023-03-14T09:03:00;9.20;;;6.30;;
22937;SDS011;11634;42.734;23.298;2023-03-14T09:05:25;8.30;;;6.30;;
22937;SDS011;11634;42.734;23.298;2023-03-14T09:07:52;8.40;;;6.10;;
22937;SDS011;11634;42.734;23.298;2023-03-14T09:10:18;15.70;;;7.13;;
22937;SDS011;11634;42.734;23.298;2023-03-14T09:12:43;12.20;;;6.80;;
22937;SDS011;11634;42.734;23.298;2023-03-14T09:15:11;14.82;;;7.18;;
22937;SDS011;11634;42.734;23.298;2023-03-14T09:17:38;9.20;;;6.28;;
22937;SDS011;11634;42.734;23.298;2023-03-14T09:20:07;8.75;;;6.03;;
22937;SDS011;11634;42.734;23.298;2023-03-14T09:22:34;10.07;;;6.68;;
22937;SDS011;11634;42.734;23.298;2023-03-14T09:25:02;13.77;;;7.13;;
22937;SDS011;11634;42.734;23.298;2023-03-14T09:27:28;8.98;;;5.68;;
22937;SDS011;11634;42.734;23.298;2023-03-14T09:29:54;8.70;;;6.50;;
22937;SDS011;11634;42.734;23.298;2023-03-14T09:32:19;11.23;;;6.75;;
22937;SDS011;11634;42.734;23.298;2023-03-14T09:34:45;9.13;;;5.82;;
22937;SDS011;11634;42.734;23.298;2023-03-14T09:37:12;9.95;;;6.40;;
22937;SDS011;11634;42.734;23.298;2023-03-14T09:39:37;11.93;;;6.00;;
22937;SDS011;11634;42.734;23.298;2023-03-14T09:42:04;16.35;;;6.60;;
22937;SDS011;11634;42.734;23.298;2023-03-14T09:44:32;10.00;;;6.05;;
22937;SDS011;11634;42.734;23.298;2023-03-14T09:47:10;8.00;;;5.40;;
22937;SDS011;11634;42.734;23.298;2023-03-14T09:49:37;7.22;;;4.80;;
22937;SDS011;11634;42.734;23.298;2023-03-14T09:52:22;5.70;;;4.18;;
22937;SDS011;11634;42.734;23.298;2023-03-14T09:55:31;8.70;;;5.30;;
22937;SDS011;11634;42.734;23.298;2023-03-14T09:57:38;6.72;;;4.50;;
22937;SDS011;11634;42.734;23.298;2023-03-14T10:00:14;7.10;;;4.30;;
22937;SDS011;11634;42.734;23.298;2023-03-14T10:05:30;6.43;;;4.63;;
22937;SDS011;11634;42.734;23.298;2023-03-14T10:07:58;6.90;;;5.07;;
22937;SDS011;11634;42.734;23.298;2023-03-14T10:10:25;9.02;;;5.60;;
22937;SDS011;11634;42.734;23.298;2023-03-14T10:16:03;9.48;;;5.60;;
22937;SDS011;11634;42.734;23.298;2023-03-14T10:18:30;6.45;;;4.93;;
22937;SDS011;11634;42.734;23.298;2023-03-14T10:21:40;9.35;;;5.97;;
22937;SDS011;11634;42.734;23.298;2023-03-14T10:23:47;9.32;;;4.85;;
22937;SDS011;11634;42.734;23.298;2023-03-14T10:28:41;7.63;;;5.13;;
22937;SDS011;11634;42.734;23.298;2023-03-14T10:31:07;11.02;;;4.85;;
22937;SDS011;11634;42.734;23.298;2023-03-14T10:33:34;9.70;;;5.10;;
22937;SDS011;11634;42.734;23.298;2023-03-14T10:36:01;6.30;;;5.28;;
22937;SDS011;11634;42.734;23.298;2023-03-14T10:38:29;7.72;;;5.25;;
22937;SDS011;11634;42.734;23.298;2023-03-14T10:40:56;7.45;;;4.70;;
22937;SDS011;11634;42.734;23.298;2023-03-14T10:43:27;6.28;;;4.22;;
22937;SDS011;11634;42.734;23.298;2023-03-14T10:46:00;7.50;;;5.60;;
22937;SDS011;11634;42.734;23.298;2023-03-14T10:48:34;8.13;;;5.78;;
22937;SDS011;11634;42.734;23.298;2023-03-14T10:54:01;7.55;;;5.93;;
22937;SDS011;11634;42.734;23.298;2023-03-14T10:56:28;5.80;;;4.97;;
22937;SDS011;11634;42.734;23.298;2023-03-14T10:58:59;6.53;;;4.05;;
22937;SDS011;11634;42.734;23.298;2023-03-14T11:07:12;6.97;;;5.28;;
22937;SDS011;11634;42.734;23.298;2023-03-14T11:09:48;8.35;;;4.80;;
22937;SDS011;11634;42.734;23.298;2023-03-14T11:23:18;6.10;;;4.03;;
22937;SDS011;11634;42.734;23.298;2023-03-14T11:26:48;7.45;;;4.75;;
22937;SDS011;11634;42.734;23.298;2023-03-14T11:28:44;5.88;;;3.95;;
22937;SDS011;11634;42.734;23.298;2023-03-14T11:31:23;6.20;;;3.50;;
22937;SDS011;11634;42.734;23.298;2023-03-14T11:34:05;6.70;;;3.08;;
22937;SDS011;11634;42.734;23.298;2023-03-14T11:36:44;9.02;;;3.60;;
22937;SDS011;11634;42.734;23.298;2023-03-14T11:39:18;5.72;;;3.60;;
22937;SDS011;11634;42.734;23.298;2023-03-14T11:41:46;7.50;;;3.80;;
22937;SDS011;11634;42.734;23.298;2023-03-14T11:44:32;6.00;;;3.90;;
22937;SDS011;11634;42.734;23.298;2023-03-14T11:47:08;6.13;;;3.85;;
22937;SDS011;11634;42.734;23.298;2023-03-14T11:52:12;5.53;;;3.33;;
22937;SDS011;11634;42.734;23.298;2023-03-14T11:57:05;5.63;;;3.72;;
22937;SDS011;11634;42.734;23.298;2023-03-14T12:02:06;6.72;;;3.83;;
22937;SDS011;11634;42.734;23.298;2023-03-14T12:10:01;4.53;;;3.10;;
22937;SDS011;11634;42.734;23.298;2023-03-14T12:12:27;7.78;;;3.20;;
22937;SDS011;11634;42.734;23.298;2023-03-14T12:14:58;4.32;;;3.15;;
22937;SDS011;11634;42.734;23.298;2023-03-14T12:17:40;4.57;;;2.80;;
22937;SDS011;11634;42.734;23.298;2023-03-14T12:22:36;6.25;;;2.97;;
22937;SDS011;11634;42.734;23.298;2023-03-14T12:30:25;5.05;;;2.70;;
22937;SDS011;11634;42.734;23.298;2023-03-14T12:35:40;6.45;;;3.08;;
22937;SDS011;11634;42.734;23.298;2023-03-14T12:38:48;5.82;;;2.80;;
22937;SDS011;11634;42.734;23.298;2023-03-14T12:43:51;4.38;;;2.70;;
22937;SDS011;11634;42.734;23.298;2023-03-14T12:48:46;4.20;;;2.40;;
22937;SDS011;11634;42.734;23.298;2023-03-14T12:51:13;4.20;;;2.45;;
22937;SDS011;11634;42.734;23.298;2023-03-14T12:53:57;3.30;;;2.20;;
22937;SDS011;11634;42.734;23.298;2023-03-14T12:56:38;4.75;;;2.28;;
22937;SDS011;11634;42.734;23.298;2023-03-14T12:59:11;4.50;;;2.13;;
22937;SDS011;11634;42.734;23.298;2023-03-14T13:02:01;5.53;;;2.30;;
22937;SDS011;11634;42.734;23.298;2023-03-14T13:04:44;2.72;;;2.05;;
22937;SDS011;11634;42.734;23.298;2023-03-14T13:08:02;3.63;;;2.08;;
22937;SDS011;11634;42.734;23.298;2023-03-14T13:10:02;2.88;;;1.85;;
22937;SDS011;11634;42.734;23.298;2023-03-14T13:12:29;2.35;;;1.70;;
22937;SDS011;11634;42.734;23.298;2023-03-14T13:14:58;4.10;;;2.15;;
22937;SDS011;11634;42.734;23.298;2023-03-14T13:17:32;4.05;;;2.20;;
22937;SDS011;11634;42.734;23.298;2023-03-14T13:20:00;5.15;;;2.50;;
22937;SDS011;11634;42.734;23.298;2023-03-14T13:22:30;2.30;;;1.80;;
22937;SDS011;11634;42.734;23.298;2023-03-14T13:25:00;5.05;;;2.50;;
22937;SDS011;11634;42.734;23.298;2023-03-14T13:27:29;2.85;;;2.05;;
22937;SDS011;11634;42.734;23.298;2023-03-14T13:29:56;3.72;;;2.33;;
22937;SDS011;11634;42.734;23.298;2023-03-14T13:32:22;2.95;;;2.17;;
22937;SDS011;11634;42.734;23.298;2023-03-14T13:34:50;2.53;;;2.00;;
22937;SDS011;11634;42.734;23.298;2023-03-14T13:37:17;6.35;;;2.30;;
22937;SDS011;11634;42.734;23.298;2023-03-14T13:39:48;2.78;;;1.77;;
22937;SDS011;11634;42.734;23.298;2023-03-14T13:42:15;3.35;;;2.08;;
22937;SDS011;11634;42.734;23.298;2023-03-14T13:44:40;2.22;;;1.98;;
22937;SDS011;11634;42.734;23.298;2023-03-14T13:47:11;5.40;;;2.13;;
22937;SDS011;11634;42.734;23.298;2023-03-14T13:49:39;2.60;;;1.98;;
22937;SDS011;11634;42.734;23.298;2023-03-14T13:52:21;2.78;;;2.17;;
22937;SDS011;11634;42.734;23.298;2023-03-14T13:54:46;2.50;;;1.73;;
22937;SDS011;11634;42.734;23.298;2023-03-14T13:57:12;1.75;;;1.45;;
22937;SDS011;11634;42.734;23.298;2023-03-14T13:59:38;2.00;;;1.50;;
22937;SDS011;11634;42.734;23.298;2023-03-14T14:02:14;2.08;;;1.38;;
22937;SDS011;11634;42.734;23.298;2023-03-14T14:04:39;2.65;;;2.03;;
22937;SDS011;11634;42.734;23.298;2023-03-14T14:07:09;2.33;;;1.70;;
22937;SDS011;11634;42.734;23.298;2023-03-14T14:09:43;3.30;;;1.77;;
22937;SDS011;11634;42.734;23.298;2023-03-14T14:12:16;3.70;;;1.65;;
22937;SDS011;11634;42.734;23.298;2023-03-14T14:17:20;4.20;;;3.78;;
22937;SDS011;11634;42.734;23.298;2023-03-14T14:19:48;5.75;;;2.85;;
22937;SDS011;11634;42.734;23.298;2023-03-14T14:22:14;5.03;;;2.42;;
22937;SDS011;11634;42.734;23.298;2023-03-14T14:24:39;5.35;;;2.67;;
22937;SDS011;11634;42.734;23.298;2023-03-14T14:29:34;3.05;;;1.80;;
22937;SDS011;11634;42.734;23.298;2023-03-14T14:32:10;4.22;;;2.00;;
22937;SDS011;11634;42.734;23.298;2023-03-14T14:34:43;2.83;;;1.92;;
22937;SDS011;11634;42.734;23.298;2023-03-14T14:37:41;8.73;;;2.25;;
22937;SDS011;11634;42.734;23.298;2023-03-14T14:40:01;2.55;;;1.75;;
22937;SDS011;11634;42.734;23.298;2023-03-14T14:42:31;4.63;;;1.98;;
22937;SDS011;11634;42.734;23.298;2023-03-14T14:44:57;3.65;;;1.70;;
22937;SDS011;11634;42.734;23.298;2023-03-14T14:47:24;3.08;;;1.55;;
22937;SDS011;11634;42.734;23.298;2023-03-14T14:49:50;2.40;;;1.40;;
22937;SDS011;11634;42.734;23.298;2023-03-14T14:52:20;3.42;;;1.30;;
22937;SDS011;11634;42.734;23.298;2023-03-14T14:54:57;2.03;;;1.40;;
22937;SDS011;11634;42.734;23.298;2023-03-14T14:57:42;3.35;;;1.85;;
22937;SDS011;11634;42.734;23.298;2023-03-14T15:00:22;3.28;;;1.55;;
22937;SDS011;11634;42.734;23.298;2023-03-14T15:02:51;4.15;;;2.25;;
22937;SDS011;11634;42.734;23.298;2023-03-14T15:05:27;5.15;;;1.92;;
22937;SDS011;11634;42.734;23.298;2023-03-14T15:07:54;4.53;;;2.28;;
22937;SDS011;11634;42.734;23.298;2023-03-14T15:10:20;9.90;;;2.35;;
22937;SDS011;11634;42.734;23.298;2023-03-14T15:12:47;3.15;;;1.80;;
22937;SDS011;11634;42.734;23.298;2023-03-14T15:15:13;2.90;;;2.17;;
22937;SDS011;11634;42.734;23.298;2023-03-14T15:17:42;4.28;;;2.40;;
22937;SDS011;11634;42.734;23.298;2023-03-14T15:20:11;2.17;;;1.42;;
22937;SDS011;11634;42.734;23.298;2023-03-14T15:22:38;2.10;;;1.15;;
22937;SDS011;11634;42.734;23.298;2023-03-14T15:25:04;3.08;;;1.80;;
22937;SDS011;11634;42.734;23.298;2023-03-14T15:27:29;2.55;;;1.58;;
22937;SDS011;11634;42.734;23.298;2023-03-14T15:29:57;5.30;;;2.08;;
22937;SDS011;11634;42.734;23.298;2023-03-14T15:32:24;1.58;;;1.48;;
22937;SDS011;11634;42.734;23.298;2023-03-14T15:34:53;6.85;;;2.47;;
22937;SDS011;11634;42.734;23.298;2023-03-14T15:37:19;3.88;;;2.58;;
22937;SDS011;11634;42.734;23.298;2023-03-14T15:39:45;6.28;;;2.42;;
22937;SDS011;11634;42.734;23.298;2023-03-14T15:42:11;7.07;;;2.00;;
22937;SDS011;11634;42.734;23.298;2023-03-14T15:44:37;4.55;;;2.45;;
22937;SDS011;11634;42.734;23.298;2023-03-14T15:47:04;6.60;;;3.22;;